sensor_id;sensor_type;location;lat;lon;timestamp;pressure;altitude;pressure_sealevel;temperature;humidity
70072;BME280;57434;42.794;23.302;2022-07-29T00:02:11;95768.19;;;17.71;77.73
70072;BME280;57434;42.794;23.302;2022-07-29T00:04:37;95823.53;;;18.15;77.64
70072;BME280;57434;42.794;23.302;2022-07-29T00:07:03;95781.31;;;17.74;77.85
70072;BME280;57434;42.794;23.302;2022-07-29T00:09:30;95820.88;;;18.04;77.61
70072;BME280;57434;42.794;23.302;2022-07-29T00:11:59;95846.63;;;18.25;77.87
70072;BME280;57434;42.794;23.302;2022-07-29T00:14:26;95758.25;;;17.40;78.26
70072;BME280;57434;42.794;23.302;2022-07-29T00:16:52;95856.69;;;18.26;78.00
70072;BME280;57434;42.794;23.302;2022-07-29T00:19:18;95762.13;;;17.80;77.18
70072;BME280;57434;42.794;23.302;2022-07-29T00:21:43;95775.59;;;17.93;76.67
70072;BME280;57434;42.794;23.302;2022-07-29T00:24:09;95678.69;;;16.95;77.47
70072;BME280;57434;42.794;23.302;2022-07-29T00:26:35;95766.16;;;17.47;77.85
70072;BME280;57434;42.794;23.302;2022-07-29T00:29:03;95779.28;;;17.50;78.15
70072;BME280;57434;42.794;23.302;2022-07-29T00:31:29;95716.25;;;17.20;77.57
70072;BME280;57434;42.794;23.302;2022-07-29T00:33:55;95841.94;;;18.27;77.22
70072;BME280;57434;42.794;23.302;2022-07-29T00:36:21;95764.75;;;17.59;77.37
70072;BME280;57434;42.794;23.302;2022-07-29T00:38:48;95847.88;;;18.11;77.29
70072;BME280;57434;42.794;23.302;2022-07-29T00:41:14;95849.84;;;18.16;77.26
70072;BME280;57434;42.794;23.302;2022-07-29T00:43:40;95639.31;;;16.48;77.44
70072;BME280;57434;42.794;23.302;2022-07-29T00:46:07;95854.44;;;18.19;77.44
70072;BME280;57434;42.794;23.302;2022-07-29T00:48:35;95710.00;;;17.27;76.48
70072;BME280;57434;42.794;23.302;2022-07-29T00:51:05;95754.44;;;17.56;76.56
70072;BME280;57434;42.794;23.302;2022-07-29T00:53:33;95720.41;;;17.19;77.18
70072;BME280;57434;42.794;23.302;2022-07-29T00:56:00;95859.69;;;17.96;77.70
70072;BME280;57434;42.794;23.302;2022-07-29T00:58:26;95622.09;;;16.46;77.20
70072;BME280;57434;42.794;23.302;2022-07-29T01:00:52;95771.53;;;17.32;77.51
70072;BME280;57434;42.794;23.302;2022-07-29T01:03:18;95844.13;;;18.03;77.49
70072;BME280;57434;42.794;23.302;2022-07-29T01:05:45;95729.00;;;17.32;77.12
70072;BME280;57434;42.794;23.302;2022-07-29T01:08:14;95830.00;;;17.97;77.51
70072;BME280;57434;42.794;23.302;2022-07-29T01:10:41;95702.13;;;16.96;77.92
70072;BME280;57434;42.794;23.302;2022-07-29T01:13:09;95745.59;;;17.04;78.65
70072;BME280;57434;42.794;23.302;2022-07-29T01:15:44;95784.75;;;17.67;78.72
70072;BME280;57434;42.794;23.302;2022-07-29T01:18:18;95733.88;;;17.13;78.36
70072;BME280;57434;42.794;23.302;2022-07-29T01:21:18;95812.84;;;17.46;79.56
70072;BME280;57434;42.794;23.302;2022-07-29T01:29:32;95806.66;;;17.48;81.17
70072;BME280;57434;42.794;23.302;2022-07-29T01:32:10;95679.75;;;16.92;79.66
70072;BME280;57434;42.794;23.302;2022-07-29T01:34:56;95798.63;;;17.89;78.54
70072;BME280;57434;42.794;23.302;2022-07-29T01:43:14;95617.50;;;17.05;75.71
70072;BME280;57434;42.794;23.302;2022-07-29T01:45:46;95738.34;;;17.46;77.55
70072;BME280;57434;42.794;23.302;2022-07-29T01:48:22;95737.50;;;17.32;78.76
70072;BME280;57434;42.794;23.302;2022-07-29T01:50:53;95775.34;;;17.35;79.95
70072;BME280;57434;42.794;23.302;2022-07-29T01:53:36;95811.50;;;17.53;80.28
70072;BME280;57434;42.794;23.302;2022-07-29T01:56:06;95763.63;;;17.25;80.47
70072;BME280;57434;42.794;23.302;2022-07-29T01:58:35;95716.16;;;17.07;80.06
70072;BME280;57434;42.794;23.302;2022-07-29T02:01:03;95806.59;;;17.72;79.48
70072;BME280;57434;42.794;23.302;2022-07-29T02:03:31;95808.22;;;17.68;79.71
70072;BME280;57434;42.794;23.302;2022-07-29T02:05:59;95807.06;;;17.76;79.35
70072;BME280;57434;42.794;23.302;2022-07-29T02:08:28;95803.03;;;17.47;80.02
70072;BME280;57434;42.794;23.302;2022-07-29T02:10:55;95702.97;;;16.42;80.90
70072;BME280;57434;42.794;23.302;2022-07-29T02:13:23;95734.47;;;16.57;81.14
70072;BME280;57434;42.794;23.302;2022-07-29T02:15:51;95726.22;;;16.83;80.76
70072;BME280;57434;42.794;23.302;2022-07-29T02:18:20;95720.94;;;16.74;80.23
70072;BME280;57434;42.794;23.302;2022-07-29T02:20:50;95799.44;;;17.47;79.50
70072;BME280;57434;42.794;23.302;2022-07-29T02:23:20;95688.81;;;16.90;79.05
70072;BME280;57434;42.794;23.302;2022-07-29T02:25:53;95764.09;;;17.48;78.87
70072;BME280;57434;42.794;23.302;2022-07-29T02:28:22;95686.78;;;16.67;79.58
70072;BME280;57434;42.794;23.302;2022-07-29T02:30:52;95812.53;;;17.31;80.32
70072;BME280;57434;42.794;23.302;2022-07-29T02:33:20;95705.84;;;16.66;79.94
70072;BME280;57434;42.794;23.302;2022-07-29T02:35:47;95766.19;;;17.04;80.33
70072;BME280;57434;42.794;23.302;2022-07-29T02:38:18;95644.81;;;16.16;80.33
70072;BME280;57434;42.794;23.302;2022-07-29T02:41:07;95792.84;;;16.96;80.85
70072;BME280;57434;42.794;23.302;2022-07-29T02:43:37;95784.91;;;17.13;81.15
70072;BME280;57434;42.794;23.302;2022-07-29T02:46:11;95680.72;;;16.51;80.61
70072;BME280;57434;42.794;23.302;2022-07-29T02:49:29;95683.25;;;16.55;80.22
70072;BME280;57434;42.794;23.302;2022-07-29T02:51:36;95795.06;;;17.27;80.07
70072;BME280;57434;42.794;23.302;2022-07-29T02:54:07;95803.59;;;17.03;81.45
70072;BME280;57434;42.794;23.302;2022-07-29T02:56:35;95809.00;;;17.01;81.35
70072;BME280;57434;42.794;23.302;2022-07-29T02:59:13;95801.13;;;17.12;81.22
70072;BME280;57434;42.794;23.302;2022-07-29T03:01:42;95792.69;;;17.07;80.53
70072;BME280;57434;42.794;23.302;2022-07-29T03:04:09;95810.78;;;17.04;81.04
70072;BME280;57434;42.794;23.302;2022-07-29T03:06:37;95660.13;;;16.02;81.04
70072;BME280;57434;42.794;23.302;2022-07-29T03:09:05;95555.25;;;15.40;81.54
70072;BME280;57434;42.794;23.302;2022-07-29T03:11:32;95775.59;;;16.93;81.82
70072;BME280;57434;42.794;23.302;2022-07-29T03:13:59;95663.66;;;16.08;82.06
70072;BME280;57434;42.794;23.302;2022-07-29T03:16:26;95612.56;;;15.71;81.84
70072;BME280;57434;42.794;23.302;2022-07-29T03:18:53;95565.16;;;15.52;81.98
70072;BME280;57434;42.794;23.302;2022-07-29T03:21:19;95613.06;;;15.99;81.70
70072;BME280;57434;42.794;23.302;2022-07-29T03:23:45;95691.16;;;16.62;81.01
70072;BME280;57434;42.794;23.302;2022-07-29T03:26:12;95791.06;;;17.36;80.47
70072;BME280;57434;42.794;23.302;2022-07-29T03:28:38;95636.16;;;16.52;79.80
70072;BME280;57434;42.794;23.302;2022-07-29T03:31:03;95763.22;;;17.34;80.10
70072;BME280;57434;42.794;23.302;2022-07-29T03:33:29;95647.19;;;16.55;79.87
70072;BME280;57434;42.794;23.302;2022-07-29T03:35:56;95565.44;;;16.03;79.53
70072;BME280;57434;42.794;23.302;2022-07-29T03:38:26;95780.44;;;17.60;78.72
70072;BME280;57434;42.794;23.302;2022-07-29T03:41:00;95759.19;;;17.30;78.37
70072;BME280;57434;42.794;23.302;2022-07-29T03:43:41;95564.09;;;15.85;79.58
70072;BME280;57434;42.794;23.302;2022-07-29T03:46:11;95544.31;;;15.25;81.24
70072;BME280;57434;42.794;23.302;2022-07-29T03:48:44;95826.50;;;17.05;82.18
70072;BME280;57434;42.794;23.302;2022-07-29T03:51:12;95662.22;;;16.50;82.20
70072;BME280;57434;42.794;23.302;2022-07-29T03:53:41;95542.47;;;15.88;81.99
70072;BME280;57434;42.794;23.302;2022-07-29T03:56:13;95481.28;;;15.36;80.61
70072;BME280;57434;42.794;23.302;2022-07-29T03:58:51;95491.06;;;15.59;79.30
70072;BME280;57434;42.794;23.302;2022-07-29T04:01:22;95546.78;;;16.56;78.60
70072;BME280;57434;42.794;23.302;2022-07-29T04:03:52;95824.47;;;18.05;78.34
70072;BME280;57434;42.794;23.302;2022-07-29T04:06:20;95831.13;;;18.26;77.62
70072;BME280;57434;42.794;23.302;2022-07-29T04:08:46;95671.13;;;17.59;77.92
70072;BME280;57434;42.794;23.302;2022-07-29T04:11:12;95682.22;;;17.76;76.56
70072;BME280;57434;42.794;23.302;2022-07-29T04:13:41;95640.81;;;17.49;76.40
70072;BME280;57434;42.794;23.302;2022-07-29T04:16:16;95502.53;;;16.16;78.25
70072;BME280;57434;42.794;23.302;2022-07-29T04:18:44;95758.75;;;17.82;78.93
70072;BME280;57434;42.794;23.302;2022-07-29T04:21:10;95817.59;;;18.32;79.21
70072;BME280;57434;42.794;23.302;2022-07-29T04:23:36;95786.28;;;18.38;80.16
70072;BME280;57434;42.794;23.302;2022-07-29T04:26:02;95674.47;;;18.22;77.54
70072;BME280;57434;42.794;23.302;2022-07-29T04:28:38;95600.38;;;17.93;76.04
70072;BME280;57434;42.794;23.302;2022-07-29T04:31:10;95414.56;;;16.83;75.41
70072;BME280;57434;42.794;23.302;2022-07-29T04:33:37;95554.16;;;17.35;76.15
70072;BME280;57434;42.794;23.302;2022-07-29T04:36:03;95539.88;;;17.27;75.70
70072;BME280;57434;42.794;23.302;2022-07-29T04:38:29;95778.19;;;18.87;75.51
70072;BME280;57434;42.794;23.302;2022-07-29T04:41:00;95739.16;;;18.29;75.74
70072;BME280;57434;42.794;23.302;2022-07-29T04:43:26;95572.50;;;17.66;75.65
70072;BME280;57434;42.794;23.302;2022-07-29T04:45:54;95678.03;;;18.54;75.06
70072;BME280;57434;42.794;23.302;2022-07-29T04:48:26;95826.03;;;19.68;75.17
70072;BME280;57434;42.794;23.302;2022-07-29T04:50:55;95662.19;;;18.72;74.61
70072;BME280;57434;42.794;23.302;2022-07-29T04:53:21;95625.00;;;18.44;74.48
70072;BME280;57434;42.794;23.302;2022-07-29T04:55:47;95826.63;;;19.87;74.18
70072;BME280;57434;42.794;23.302;2022-07-29T04:58:16;95394.69;;;17.02;73.89
70072;BME280;57434;42.794;23.302;2022-07-29T05:00:42;95713.16;;;18.97;74.69
70072;BME280;57434;42.794;23.302;2022-07-29T05:03:09;95481.84;;;17.28;75.17
70072;BME280;57434;42.794;23.302;2022-07-29T05:05:34;95600.75;;;18.16;74.56
70072;BME280;57434;42.794;23.302;2022-07-29T05:08:03;95702.09;;;19.06;74.96
70072;BME280;57434;42.794;23.302;2022-07-29T05:10:31;95870.53;;;20.05;74.49
70072;BME280;57434;42.794;23.302;2022-07-29T05:13:05;95566.00;;;18.50;72.88
70072;BME280;57434;42.794;23.302;2022-07-29T05:15:33;95838.75;;;20.48;72.45
70072;BME280;57434;42.794;23.302;2022-07-29T05:17:59;95611.91;;;18.80;72.01
70072;BME280;57434;42.794;23.302;2022-07-29T05:20:46;95660.28;;;19.14;72.33
70072;BME280;57434;42.794;23.302;2022-07-29T05:23:14;95598.13;;;18.71;72.32
70072;BME280;57434;42.794;23.302;2022-07-29T05:25:41;95645.22;;;18.27;75.43
70072;BME280;57434;42.794;23.302;2022-07-29T05:28:07;95592.72;;;17.88;76.46
70072;BME280;57434;42.794;23.302;2022-07-29T05:30:35;95766.19;;;19.20;75.66
70072;BME280;57434;42.794;23.302;2022-07-29T05:33:01;95820.00;;;19.58;76.30
70072;BME280;57434;42.794;23.302;2022-07-29T05:35:27;95754.13;;;19.01;75.99
70072;BME280;57434;42.794;23.302;2022-07-29T05:37:53;95852.34;;;19.94;75.20
70072;BME280;57434;42.794;23.302;2022-07-29T05:40:19;95836.00;;;20.08;73.47
70072;BME280;57434;42.794;23.302;2022-07-29T05:42:47;95734.88;;;19.07;73.20
70072;BME280;57434;42.794;23.302;2022-07-29T05:45:13;95704.19;;;18.92;73.62
70072;BME280;57434;42.794;23.302;2022-07-29T05:47:39;95777.53;;;19.34;73.76
70072;BME280;57434;42.794;23.302;2022-07-29T05:50:05;95848.09;;;19.88;74.50
70072;BME280;57434;42.794;23.302;2022-07-29T05:52:31;95718.28;;;18.85;75.22
70072;BME280;57434;42.794;23.302;2022-07-29T05:54:57;95763.34;;;19.20;74.54
70072;BME280;57434;42.794;23.302;2022-07-29T05:57:24;95766.16;;;19.34;74.28
70072;BME280;57434;42.794;23.302;2022-07-29T05:59:50;95851.50;;;19.86;74.41
70072;BME280;57434;42.794;23.302;2022-07-29T06:02:17;95777.41;;;19.52;74.86
70072;BME280;57434;42.794;23.302;2022-07-29T06:04:43;95845.34;;;19.95;75.13
70072;BME280;57434;42.794;23.302;2022-07-29T06:07:08;95752.13;;;19.62;73.53
70072;BME280;57434;42.794;23.302;2022-07-29T06:09:34;95852.53;;;20.57;71.64
70072;BME280;57434;42.794;23.302;2022-07-29T06:12:01;95850.84;;;20.61;72.23
70072;BME280;57434;42.794;23.302;2022-07-29T06:14:27;95855.66;;;20.87;71.21
70072;BME280;57434;42.794;23.302;2022-07-29T06:16:54;95820.81;;;20.81;71.07
70072;BME280;57434;42.794;23.302;2022-07-29T06:19:19;95743.22;;;20.54;70.69
70072;BME280;57434;42.794;23.302;2022-07-29T06:21:46;95794.53;;;21.24;69.80
70072;BME280;57434;42.794;23.302;2022-07-29T06:24:13;95760.19;;;21.38;66.43
70072;BME280;57434;42.794;23.302;2022-07-29T06:26:40;95824.53;;;22.34;65.58
70072;BME280;57434;42.794;23.302;2022-07-29T06:29:07;95691.31;;;21.41;64.10
70072;BME280;57434;42.794;23.302;2022-07-29T06:31:33;95761.16;;;21.40;67.37
70072;BME280;57434;42.794;23.302;2022-07-29T06:33:59;95842.69;;;22.44;64.78
70072;BME280;57434;42.794;23.302;2022-07-29T06:36:25;95715.34;;;22.12;64.74
70072;BME280;57434;42.794;23.302;2022-07-29T06:38:51;95822.75;;;23.20;63.46
70072;BME280;57434;42.794;23.302;2022-07-29T06:41:16;95729.13;;;22.75;61.62
70072;BME280;57434;42.794;23.302;2022-07-29T06:43:44;95772.56;;;23.34;61.66
70072;BME280;57434;42.794;23.302;2022-07-29T06:46:13;95740.63;;;23.60;60.40
70072;BME280;57434;42.794;23.302;2022-07-29T06:48:40;95740.06;;;23.94;56.91
70072;BME280;57434;42.794;23.302;2022-07-29T06:51:07;95732.88;;;23.86;56.89
70072;BME280;57434;42.794;23.302;2022-07-29T06:53:34;95735.75;;;24.18;59.09
70072;BME280;57434;42.794;23.302;2022-07-29T06:56:01;95733.03;;;24.53;56.15
70072;BME280;57434;42.794;23.302;2022-07-29T06:58:28;95826.53;;;25.13;56.08
70072;BME280;57434;42.794;23.302;2022-07-29T07:00:55;95752.13;;;24.83;55.69
70072;BME280;57434;42.794;23.302;2022-07-29T07:03:21;95760.53;;;24.63;53.94
70072;BME280;57434;42.794;23.302;2022-07-29T07:05:48;95701.47;;;24.03;55.08
70072;BME280;57434;42.794;23.302;2022-07-29T07:08:14;95815.66;;;25.29;52.01
70072;BME280;57434;42.794;23.302;2022-07-29T07:10:42;95758.41;;;24.89;47.12
70072;BME280;57434;42.794;23.302;2022-07-29T07:13:08;95831.34;;;25.28;47.88
70072;BME280;57434;42.794;23.302;2022-07-29T07:15:36;95785.47;;;25.45;46.83
70072;BME280;57434;42.794;23.302;2022-07-29T07:18:03;95707.69;;;25.26;45.65
70072;BME280;57434;42.794;23.302;2022-07-29T07:20:29;95708.03;;;25.13;45.73
70072;BME280;57434;42.794;23.302;2022-07-29T07:22:54;95816.81;;;25.85;45.37
70072;BME280;57434;42.794;23.302;2022-07-29T07:25:20;95745.44;;;25.47;45.78
70072;BME280;57434;42.794;23.302;2022-07-29T07:27:46;95743.22;;;25.55;44.73
70072;BME280;57434;42.794;23.302;2022-07-29T07:30:12;95751.31;;;25.32;46.67
70072;BME280;57434;42.794;23.302;2022-07-29T07:32:38;95674.78;;;24.92;45.40
70072;BME280;57434;42.794;23.302;2022-07-29T07:35:06;95811.09;;;26.03;45.34
70072;BME280;57434;42.794;23.302;2022-07-29T07:37:32;95733.28;;;25.83;43.67
70072;BME280;57434;42.794;23.302;2022-07-29T07:39:58;95811.06;;;26.64;45.02
70072;BME280;57434;42.794;23.302;2022-07-29T07:42:24;95718.50;;;26.04;44.21
70072;BME280;57434;42.794;23.302;2022-07-29T07:44:50;95755.22;;;26.50;42.38
70072;BME280;57434;42.794;23.302;2022-07-29T07:47:16;95735.94;;;26.60;43.03
70072;BME280;57434;42.794;23.302;2022-07-29T07:49:52;95728.66;;;27.05;44.06
70072;BME280;57434;42.794;23.302;2022-07-29T07:52:20;95810.47;;;27.39;40.87
70072;BME280;57434;42.794;23.302;2022-07-29T07:54:46;95810.09;;;26.79;43.63
70072;BME280;57434;42.794;23.302;2022-07-29T07:57:13;95794.75;;;26.76;43.12
70072;BME280;57434;42.794;23.302;2022-07-29T07:59:40;95805.19;;;27.08;42.45
70072;BME280;57434;42.794;23.302;2022-07-29T08:02:06;95716.91;;;26.47;43.05
70072;BME280;57434;42.794;23.302;2022-07-29T08:04:32;95655.78;;;26.56;41.60
70072;BME280;57434;42.794;23.302;2022-07-29T08:06:58;95772.84;;;27.27;41.11
70072;BME280;57434;42.794;23.302;2022-07-29T08:09:25;95781.69;;;27.58;41.43
70072;BME280;57434;42.794;23.302;2022-07-29T08:11:51;95703.19;;;27.02;40.98
70072;BME280;57434;42.794;23.302;2022-07-29T08:14:18;95796.66;;;27.47;43.16
70072;BME280;57434;42.794;23.302;2022-07-29T08:16:44;95793.03;;;27.00;43.23
70072;BME280;57434;42.794;23.302;2022-07-29T08:19:10;95694.75;;;26.30;43.38
70072;BME280;57434;42.794;23.302;2022-07-29T08:21:36;95662.81;;;26.73;42.37
70072;BME280;57434;42.794;23.302;2022-07-29T08:24:02;95802.06;;;28.08;41.30
70072;BME280;57434;42.794;23.302;2022-07-29T08:26:46;95701.44;;;27.35;39.71
70072;BME280;57434;42.794;23.302;2022-07-29T08:29:12;95680.06;;;27.38;38.98
70072;BME280;57434;42.794;23.302;2022-07-29T08:31:39;95779.53;;;27.49;40.17
70072;BME280;57434;42.794;23.302;2022-07-29T08:34:06;95715.03;;;27.15;39.69
70072;BME280;57434;42.794;23.302;2022-07-29T08:36:32;95801.00;;;28.23;38.82
70072;BME280;57434;42.794;23.302;2022-07-29T08:38:59;95765.41;;;28.40;38.47
70072;BME280;57434;42.794;23.302;2022-07-29T08:41:25;95771.00;;;28.97;37.57
70072;BME280;57434;42.794;23.302;2022-07-29T08:43:51;95670.19;;;27.89;35.96
70072;BME280;57434;42.794;23.302;2022-07-29T08:46:19;95777.56;;;28.38;37.96
70072;BME280;57434;42.794;23.302;2022-07-29T08:48:45;95774.78;;;29.10;36.78
70072;BME280;57434;42.794;23.302;2022-07-29T08:51:17;95708.81;;;28.75;36.14
70072;BME280;57434;42.794;23.302;2022-07-29T08:53:45;95794.78;;;29.27;37.16
70072;BME280;57434;42.794;23.302;2022-07-29T08:56:13;95634.75;;;28.18;38.18
70072;BME280;57434;42.794;23.302;2022-07-29T08:58:39;95792.41;;;29.66;37.04
70072;BME280;57434;42.794;23.302;2022-07-29T09:01:06;95689.91;;;29.36;35.32
70072;BME280;57434;42.794;23.302;2022-07-29T09:03:35;95708.97;;;29.51;36.07
70072;BME280;57434;42.794;23.302;2022-07-29T09:06:02;95782.09;;;29.84;37.34
70072;BME280;57434;42.794;23.302;2022-07-29T09:08:31;95715.75;;;29.13;36.71
70072;BME280;57434;42.794;23.302;2022-07-29T09:10:57;95695.19;;;29.18;35.50
70072;BME280;57434;42.794;23.302;2022-07-29T09:13:24;95768.28;;;29.61;37.06
70072;BME280;57434;42.794;23.302;2022-07-29T09:15:50;95641.72;;;28.55;35.71
70072;BME280;57434;42.794;23.302;2022-07-29T09:18:38;95769.81;;;29.95;35.68
70072;BME280;57434;42.794;23.302;2022-07-29T09:21:06;95699.53;;;29.72;35.17
70072;BME280;57434;42.794;23.302;2022-07-29T09:26:31;95757.56;;;30.51;34.46
70072;BME280;57434;42.794;23.302;2022-07-29T09:28:58;95765.75;;;30.55;34.05
70072;BME280;57434;42.794;23.302;2022-07-29T09:31:35;95675.56;;;30.25;33.40
70072;BME280;57434;42.794;23.302;2022-07-29T09:34:02;95772.03;;;30.51;33.90
70072;BME280;57434;42.794;23.302;2022-07-29T09:36:29;95725.88;;;30.65;34.23
70072;BME280;57434;42.794;23.302;2022-07-29T09:39:02;95654.97;;;30.54;35.90
70072;BME280;57434;42.794;23.302;2022-07-29T09:41:29;95678.78;;;31.11;33.89
70072;BME280;57434;42.794;23.302;2022-07-29T09:43:59;95750.63;;;31.24;33.90
70072;BME280;57434;42.794;23.302;2022-07-29T09:46:25;95724.50;;;30.66;33.05
70072;BME280;57434;42.794;23.302;2022-07-29T09:49:08;95660.00;;;30.54;34.18
70072;BME280;57434;42.794;23.302;2022-07-29T09:51:34;95585.19;;;30.04;33.27
70072;BME280;57434;42.794;23.302;2022-07-29T09:54:00;95657.81;;;31.36;32.46
70072;BME280;57434;42.794;23.302;2022-07-29T09:56:40;95733.66;;;31.56;33.80
70072;BME280;57434;42.794;23.302;2022-07-29T09:59:07;95638.25;;;31.00;31.06
70072;BME280;57434;42.794;23.302;2022-07-29T10:01:33;95655.75;;;30.90;31.14
70072;BME280;57434;42.794;23.302;2022-07-29T10:04:00;95637.56;;;31.13;32.08
70072;BME280;57434;42.794;23.302;2022-07-29T10:06:26;95611.16;;;31.44;32.01
70072;BME280;57434;42.794;23.302;2022-07-29T10:08:52;95579.84;;;31.17;32.27
70072;BME280;57434;42.794;23.302;2022-07-29T10:11:18;95715.78;;;31.96;31.09
70072;BME280;57434;42.794;23.302;2022-07-29T10:13:47;95729.31;;;32.17;30.38
70072;BME280;57434;42.794;23.302;2022-07-29T10:16:15;95653.78;;;31.41;29.70
70072;BME280;57434;42.794;23.302;2022-07-29T10:18:43;95672.00;;;31.55;30.37
70072;BME280;57434;42.794;23.302;2022-07-29T10:21:09;95616.69;;;30.56;30.94
70072;BME280;57434;42.794;23.302;2022-07-29T10:23:36;95701.66;;;31.54;30.75
70072;BME280;57434;42.794;23.302;2022-07-29T10:26:03;95668.94;;;31.28;29.50
70072;BME280;57434;42.794;23.302;2022-07-29T10:28:31;95708.03;;;30.92;31.12
70072;BME280;57434;42.794;23.302;2022-07-29T10:31:05;95642.44;;;31.45;30.89
70072;BME280;57434;42.794;23.302;2022-07-29T10:34:33;95578.75;;;31.22;30.61
70072;BME280;57434;42.794;23.302;2022-07-29T10:36:57;95621.06;;;31.15;29.48
70072;BME280;57434;42.794;23.302;2022-07-29T10:39:49;95687.44;;;31.83;29.14
70072;BME280;57434;42.794;23.302;2022-07-29T10:42:25;95628.63;;;31.57;28.94
70072;BME280;57434;42.794;23.302;2022-07-29T10:44:53;95625.56;;;31.67;30.85
70072;BME280;57434;42.794;23.302;2022-07-29T10:47:25;95602.25;;;31.90;29.80
70072;BME280;57434;42.794;23.302;2022-07-29T10:49:59;95678.19;;;32.63;30.43
70072;BME280;57434;42.794;23.302;2022-07-29T10:55:31;95543.47;;;31.64;30.13
70072;BME280;57434;42.794;23.302;2022-07-29T10:58:19;95676.91;;;31.64;29.16
70072;BME280;57434;42.794;23.302;2022-07-29T11:00:48;95662.69;;;32.58;29.12
70072;BME280;57434;42.794;23.302;2022-07-29T11:03:45;95667.25;;;33.16;28.58
70072;BME280;57434;42.794;23.302;2022-07-29T11:06:12;95593.06;;;32.47;28.31
70072;BME280;57434;42.794;23.302;2022-07-29T11:08:38;95653.59;;;33.19;28.21
70072;BME280;57434;42.794;23.302;2022-07-29T11:13:52;95659.59;;;32.95;27.66
70072;BME280;57434;42.794;23.302;2022-07-29T11:16:21;95593.72;;;32.73;28.90
70072;BME280;57434;42.794;23.302;2022-07-29T11:21:41;95647.34;;;32.97;28.97
70072;BME280;57434;42.794;23.302;2022-07-29T11:24:15;95639.03;;;33.33;28.96
70072;BME280;57434;42.794;23.302;2022-07-29T11:26:42;95568.63;;;32.66;29.29
70072;BME280;57434;42.794;23.302;2022-07-29T11:29:20;95640.94;;;33.55;29.16
70072;BME280;57434;42.794;23.302;2022-07-29T11:31:51;95587.47;;;33.62;28.22
70072;BME280;57434;42.794;23.302;2022-07-29T11:34:28;95545.94;;;33.03;28.20
70072;BME280;57434;42.794;23.302;2022-07-29T11:45:11;95622.97;;;34.34;27.85
70072;BME280;57434;42.794;23.302;2022-07-29T11:50:17;95522.88;;;33.50;27.28
70072;BME280;57434;42.794;23.302;2022-07-29T11:52:45;95627.94;;;34.02;27.50
70072;BME280;57434;42.794;23.302;2022-07-29T11:55:16;95548.88;;;33.46;27.15
70072;BME280;57434;42.794;23.302;2022-07-29T11:57:56;95610.22;;;33.95;27.42
70072;BME280;57434;42.794;23.302;2022-07-29T12:00:38;95498.97;;;33.09;27.64
70072;BME280;57434;42.794;23.302;2022-07-29T12:03:07;95620.31;;;33.65;27.71
70072;BME280;57434;42.794;23.302;2022-07-29T12:05:42;95539.88;;;33.13;28.81
70072;BME280;57434;42.794;23.302;2022-07-29T12:08:18;95604.16;;;33.33;29.19
70072;BME280;57434;42.794;23.302;2022-07-29T12:10:46;95618.63;;;33.60;27.44
70072;BME280;57434;42.794;23.302;2022-07-29T12:13:13;95524.25;;;33.49;26.67
70072;BME280;57434;42.794;23.302;2022-07-29T12:15:40;95581.81;;;34.57;27.69
70072;BME280;57434;42.794;23.302;2022-07-29T12:18:19;95465.78;;;34.20;27.79
70072;BME280;57434;42.794;23.302;2022-07-29T12:20:47;95590.09;;;34.47;26.30
70072;BME280;57434;42.794;23.302;2022-07-29T12:23:14;95602.00;;;34.21;27.30
70072;BME280;57434;42.794;23.302;2022-07-29T12:25:42;95605.88;;;34.57;26.57
70072;BME280;57434;42.794;23.302;2022-07-29T12:28:12;95599.94;;;34.71;26.15
70072;BME280;57434;42.794;23.302;2022-07-29T12:30:45;95600.13;;;34.28;26.42
70072;BME280;57434;42.794;23.302;2022-07-29T12:33:23;95586.41;;;34.31;27.09
70072;BME280;57434;42.794;23.302;2022-07-29T12:36:00;95589.63;;;34.52;27.46
70072;BME280;57434;42.794;23.302;2022-07-29T12:38:27;95585.31;;;34.53;25.98
70072;BME280;57434;42.794;23.302;2022-07-29T12:40:54;95578.53;;;34.49;26.03
70072;BME280;57434;42.794;23.302;2022-07-29T12:43:24;95450.88;;;33.06;26.48
70072;BME280;57434;42.794;23.302;2022-07-29T12:45:56;95574.41;;;34.54;25.80
70072;BME280;57434;42.794;23.302;2022-07-29T12:48:40;95549.41;;;34.49;25.79
70072;BME280;57434;42.794;23.302;2022-07-29T12:51:08;95575.84;;;33.92;26.71
70072;BME280;57434;42.794;23.302;2022-07-29T12:54:00;95578.91;;;34.41;27.11
70072;BME280;57434;42.794;23.302;2022-07-29T12:56:20;95403.16;;;34.03;26.05
70072;BME280;57434;42.794;23.302;2022-07-29T12:58:46;95490.22;;;34.44;26.28
70072;BME280;57434;42.794;23.302;2022-07-29T13:01:14;95510.97;;;35.02;26.42
70072;BME280;57434;42.794;23.302;2022-07-29T13:11:46;95546.56;;;34.82;26.24
70072;BME280;57434;42.794;23.302;2022-07-29T13:14:16;95547.88;;;34.79;25.36
70072;BME280;57434;42.794;23.302;2022-07-29T13:17:07;95543.66;;;34.82;25.01
70072;BME280;57434;42.794;23.302;2022-07-29T13:19:45;95531.09;;;34.95;24.94
70072;BME280;57434;42.794;23.302;2022-07-29T13:22:14;95542.81;;;34.80;25.32
70072;BME280;57434;42.794;23.302;2022-07-29T13:27:17;95435.34;;;34.72;24.86
70072;BME280;57434;42.794;23.302;2022-07-29T13:29:43;95514.44;;;34.98;24.20
70072;BME280;57434;42.794;23.302;2022-07-29T13:32:10;95418.25;;;34.31;26.33
70072;BME280;57434;42.794;23.302;2022-07-29T13:34:39;95364.31;;;33.97;25.01
70072;BME280;57434;42.794;23.302;2022-07-29T13:37:05;95407.00;;;34.23;25.77
70072;BME280;57434;42.794;23.302;2022-07-29T13:39:33;95443.81;;;34.33;24.96
70072;BME280;57434;42.794;23.302;2022-07-29T13:41:59;95446.56;;;33.97;25.97
70072;BME280;57434;42.794;23.302;2022-07-29T13:44:27;95506.50;;;34.67;26.87
70072;BME280;57434;42.794;23.302;2022-07-29T13:46:53;95275.19;;;33.40;26.41